Time;durP1;ratioP1;P1;durP2;ratioP2;P2;SDS_P1;SDS_P2;PMS_P1;PMS_P2;Temp;Humidity;BMP_temperature;BMP_pressure;BME280_temperature;BME280_humidity;BME280_pressure;Samples;Min_cycle;Max_cycle;Signal;HPM_P1;HPM_P2
2023/03/16 00:01:23;;;;;;;8.02;6.47;;;;;;;4.14;82.29;101705.28;5027941;28;20104;-75
2023/03/16 00:03:49;;;;;;;7.82;6.30;;;;;;;4.14;82.68;101706.13;5028759;28;20450;-76
2023/03/16 00:06:14;;;;;;;8.15;6.82;;;;;;;4.13;82.51;101712.25;5025307;28;20057;-76
2023/03/16 00:08:42;;;;;;;8.60;6.55;;;;;;;4.15;83.18;101707.84;5027104;28;20067;-76
2023/03/16 00:11:07;;;;;;;7.80;6.78;;;;;;;4.12;82.53;101707.94;5027915;28;20022;-76
2023/03/16 00:13:32;;;;;;;8.43;6.88;;;;;;;4.16;83.47;101695.66;5047116;28;20787;-76
2023/03/16 00:16:01;;;;;;;8.35;6.70;;;;;;;4.15;83.28;101697.41;5038215;28;20295;-76
2023/03/16 00:18:27;;;;;;;9.23;6.82;;;;;;;4.13;83.37;101691.41;5024387;28;20374;-76
2023/03/16 00:21:00;;;;;;;9.57;6.50;;;;;;;4.16;83.65;101687.84;5051813;28;20021;-77
2023/03/16 00:23:26;;;;;;;8.63;6.60;;;;;;;4.15;83.79;101693.97;5033721;28;20031;-77
2023/03/16 00:25:57;;;;;;;7.53;6.72;;;;;;;4.13;83.22;101683.59;5053137;28;20108;-77
2023/03/16 00:28:24;;;;;;;8.68;6.70;;;;;;;4.15;83.73;101675.72;5033997;28;20063;-76
2023/03/16 00:30:49;;;;;;;9.13;7.05;;;;;;;4.15;84.07;101679.19;5034020;28;20452;-76
2023/03/16 00:33:15;;;;;;;8.70;6.63;;;;;;;4.16;83.84;101678.28;5049411;28;20017;-78
2023/03/16 00:35:48;;;;;;;12.48;7.03;;;;;;;4.16;83.51;101678.28;5071611;28;20032;-78
2023/03/16 00:38:17;;;;;;;8.85;7.30;;;;;;;4.15;84.02;101675.72;5052689;28;20082;-76
2023/03/16 00:40:43;;;;;;;8.70;6.72;;;;;;;4.16;84.10;101680.88;5060423;28;20025;-77
2023/03/16 00:43:09;;;;;;;9.20;6.90;;;;;;;4.16;84.23;101673.06;5066137;28;20369;-76
2023/03/16 00:45:35;;;;;;;10.02;6.72;;;;;;;4.15;84.07;101667.91;5053833;28;20029;-77
2023/03/16 00:48:00;;;;;;;8.68;6.57;;;;;;;4.18;83.88;101667.81;5063707;28;20404;-76
2023/03/16 00:50:26;;;;;;;8.32;6.75;;;;;;;4.16;84.44;101660.06;5051346;28;20150;-77
2023/03/16 00:52:52;;;;;;;8.77;7.00;;;;;;;4.17;84.32;101659.16;5053742;28;20037;-77
2023/03/16 00:55:28;;;;;;;7.82;6.90;;;;;;;4.13;84.54;101654.94;5065542;28;20064;-76
2023/03/16 00:57:53;;;;;;;8.90;6.88;;;;;;;4.16;84.56;101660.06;5070902;28;20025;-77
2023/03/16 01:00:26;;;;;;;10.65;6.55;;;;;;;4.15;84.62;101665.31;5072078;28;20013;-77
2023/03/16 01:02:57;;;;;;;9.10;6.78;;;;;;;4.15;84.58;101658.34;5070399;28;20044;-77
2023/03/16 01:05:22;;;;;;;8.38;7.10;;;;;;;4.15;84.95;101644.47;5070727;28;20489;-80
2023/03/16 01:07:48;;;;;;;9.57;6.90;;;;;;;4.16;85.34;101641.81;5052536;28;20020;-79
2023/03/16 01:10:13;;;;;;;7.57;6.70;;;;;;;4.16;84.86;101636.63;5050437;28;20033;-79
2023/03/16 01:12:40;;;;;;;9.00;7.20;;;;;;;4.16;84.72;101635.75;5071315;28;20029;-76
2023/03/16 01:15:06;;;;;;;9.68;6.55;;;;;;;4.16;85.54;101625.34;5070273;28;20059;-76
2023/03/16 01:17:33;;;;;;;8.13;7.28;;;;;;;4.16;84.81;101623.59;5070482;28;20138;-76
2023/03/16 01:20:00;;;;;;;9.52;6.88;;;;;;;4.16;85.34;101615.78;5072642;28;20028;-76
2023/03/16 01:22:25;;;;;;;8.90;6.80;;;;;;;4.15;85.22;101611.47;5071453;28;20036;-76
2023/03/16 01:24:54;;;;;;;9.30;7.15;;;;;;;4.18;85.17;101608.75;5057447;28;20489;-77
2023/03/16 01:27:20;;;;;;;8.52;6.55;;;;;;;4.19;85.41;101605.25;5051975;28;20032;-77
2023/03/16 01:29:45;;;;;;;8.95;6.85;;;;;;;4.21;85.01;101606.03;5054293;28;20083;-76
2023/03/16 01:32:12;;;;;;;8.23;6.88;;;;;;;4.21;85.01;101593.03;5074760;28;20043;-79
2023/03/16 01:34:37;;;;;;;8.88;6.85;;;;;;;4.22;85.44;101599.94;5050454;28;20028;-79
2023/03/16 01:37:06;;;;;;;8.02;6.45;;;;;;;4.23;85.83;101590.38;5051913;28;20025;-79
2023/03/16 01:39:31;;;;;;;10.20;6.82;;;;;;;4.22;85.39;101592.13;5068486;28;20036;-77
2023/03/16 01:41:57;;;;;;;9.50;6.53;;;;;;;4.24;85.56;101592.06;5066179;28;20042;-79
2023/03/16 01:44:29;;;;;;;10.60;6.82;;;;;;;4.23;85.62;101593.81;5089148;28;20121;-77
2023/03/16 01:46:55;;;;;;;8.13;6.28;;;;;;;4.23;85.58;101591.22;5089772;28;20031;-77
2023/03/16 01:49:35;;;;;;;10.15;6.97;;;;;;;4.25;85.49;101592.00;5089564;28;20032;-76
2023/03/16 01:52:17;;;;;;;9.38;6.82;;;;;;;4.26;85.87;101591.09;5068435;28;20035;-79
2023/03/16 01:54:50;;;;;;;8.15;6.70;;;;;;;4.26;85.27;101596.31;5070143;28;20044;-77
2023/03/16 01:57:29;;;;;;;7.53;6.60;;;;;;;4.26;85.64;101592.84;5068282;28;20024;-77
2023/03/16 02:00:18;;;;;;;10.02;6.25;;;;;;;4.26;85.60;101592.84;5055227;28;20043;-77
2023/03/16 02:02:50;;;;;;;8.63;6.40;;;;;;;4.28;85.57;101589.28;5064563;28;20033;-77
2023/03/16 02:05:22;;;;;;;7.07;6.25;;;;;;;4.29;85.47;101580.56;5068082;28;20028;-76
2023/03/16 02:07:49;;;;;;;8.25;6.43;;;;;;;4.29;85.20;101580.56;5071690;28;20029;-77
2023/03/16 02:10:18;;;;;;;8.38;6.50;;;;;;;4.30;85.61;101582.28;5068554;28;20107;-77
2023/03/16 02:12:44;;;;;;;10.20;6.03;;;;;;;4.31;85.95;101578.75;5050713;28;20032;-77
2023/03/16 02:15:12;;;;;;;10.02;6.60;;;;;;;4.31;85.92;101575.31;5049618;28;20024;-77
2023/03/16 02:17:41;;;;;;;8.38;6.22;;;;;;;4.31;86.86;101578.75;5069614;28;20066;-78
2023/03/16 02:20:18;;;;;;;8.90;6.30;;;;;;;4.32;87.14;101572.63;5052000;28;20013;-77
2023/03/16 02:22:47;;;;;;;8.55;6.63;;;;;;;4.30;87.78;101571.84;5072214;28;20031;-77
2023/03/16 02:25:17;;;;;;;7.72;5.95;;;;;;;4.32;88.01;101570.03;5069362;28;20032;-77
2023/03/16 02:28:09;;;;;;;8.88;6.80;;;;;;;4.32;88.17;101574.41;5070243;28;20028;-78
2023/03/16 02:30:35;;;;;;;9.73;6.70;;;;;;;4.32;88.59;101563.97;5068625;28;20023;-78
2023/03/16 02:33:01;;;;;;;6.65;6.05;;;;;;;4.29;89.00;101559.72;5076560;28;20036;-77
2023/03/16 02:35:26;;;;;;;7.43;6.22;;;;;;;4.30;89.16;101563.19;5070233;28;20031;-78
2023/03/16 02:37:52;;;;;;;7.68;6.03;;;;;;;4.28;89.76;101555.44;5069732;28;20025;-77
2023/03/16 02:40:21;;;;;;;6.93;6.10;;;;;;;4.28;90.73;101558.03;5051882;28;20116;-78
2023/03/16 02:42:55;;;;;;;7.55;6.10;;;;;;;4.25;90.92;101563.34;5080625;28;20490;-78
2023/03/16 02:45:34;;;;;;;8.73;6.20;;;;;;;4.25;90.79;101558.16;5089147;28;20107;-77
2023/03/16 02:48:04;;;;;;;9.10;6.70;;;;;;;4.23;91.39;101559.97;5046271;28;20086;-78
2023/03/16 02:50:32;;;;;;;11.85;6.60;;;;;;;4.24;91.98;101553.84;5047106;28;20439;-77
2023/03/16 02:52:58;;;;;;;8.93;6.07;;;;;;;4.23;91.88;101556.50;5048887;28;20087;-78
2023/03/16 02:55:23;;;;;;;9.05;6.60;;;;;;;4.23;91.48;101544.34;5049244;28;20052;-77
2023/03/16 02:57:54;;;;;;;9.57;6.90;;;;;;;4.23;92.04;101546.94;5068031;28;20055;-78
2023/03/16 03:00:20;;;;;;;9.63;6.10;;;;;;;4.23;91.76;101533.91;5068614;28;20469;-78
2023/03/16 03:02:46;;;;;;;8.77;6.40;;;;;;;4.22;91.74;101534.81;5066116;28;20048;-78
2023/03/16 03:05:12;;;;;;;8.63;6.70;;;;;;;4.21;92.04;101535.72;5042752;28;20562;-78
2023/03/16 03:07:41;;;;;;;9.13;6.38;;;;;;;4.20;91.93;101539.25;5048287;28;20044;-78
2023/03/16 03:10:07;;;;;;;8.88;6.70;;;;;;;4.20;91.61;101534.03;5047609;28;20025;-77
2023/03/16 03:12:33;;;;;;;10.48;6.72;;;;;;;4.22;91.85;101532.22;5048286;28;20043;-80
2023/03/16 03:14:59;;;;;;;9.48;7.20;;;;;;;4.21;91.27;101533.13;5048508;28;20446;-77
2023/03/16 03:17:28;;;;;;;8.55;6.82;;;;;;;4.22;91.03;101540.03;5051928;28;20111;-75
2023/03/16 03:19:58;;;;;;;7.60;6.28;;;;;;;4.22;91.42;101537.41;5068350;28;20031;-77
2023/03/16 03:22:27;;;;;;;9.50;6.88;;;;;;;4.21;91.71;101538.31;5066531;28;20432;-79
2023/03/16 03:24:53;;;;;;;7.30;6.50;;;;;;;4.20;91.50;101535.78;5066972;28;20020;-80
2023/03/16 03:27:21;;;;;;;9.43;6.70;;;;;;;4.21;91.77;101525.31;5066828;28;20074;-77
2023/03/16 03:29:46;;;;;;;8.48;6.95;;;;;;;4.16;91.15;101531.59;5050187;28;20028;-77
2023/03/16 03:32:14;;;;;;;10.63;6.97;;;;;;;4.18;90.91;101535.84;5067125;28;20119;-77
2023/03/16 03:34:41;;;;;;;8.45;6.68;;;;;;;4.20;91.34;101527.97;5088584;28;20028;-77
2023/03/16 03:37:07;;;;;;;7.15;6.40;;;;;;;4.17;91.94;101530.69;5082749;28;20107;-77
2023/03/16 03:39:33;;;;;;;7.20;6.30;;;;;;;4.18;91.08;101524.56;5063595;28;20699;-79
2023/03/16 03:41:58;;;;;;;9.43;6.60;;;;;;;4.13;91.31;101519.53;5061502;28;20056;-80
2023/03/16 03:44:25;;;;;;;8.75;6.35;;;;;;;4.16;91.23;101515.97;5088615;28;20048;-77
2023/03/16 03:46:54;;;;;;;10.52;6.82;;;;;;;4.15;91.17;101519.47;5074288;28;20047;-77
2023/03/16 03:49:22;;;;;;;10.35;6.40;;;;;;;4.15;90.81;101525.53;5068495;28;20032;-77
2023/03/16 03:51:48;;;;;;;7.72;6.10;;;;;;;4.13;90.81;101524.75;5070527;28;20036;-77
2023/03/16 03:54:13;;;;;;;10.00;6.20;;;;;;;4.13;91.07;101529.94;5074836;28;20044;-78
2023/03/16 03:56:39;;;;;;;7.90;6.22;;;;;;;4.15;91.10;101530.75;5057713;28;20036;-78
2023/03/16 03:59:04;;;;;;;9.13;6.15;;;;;;;4.16;91.50;101511.59;5059917;28;20469;-78
2023/03/16 04:01:30;;;;;;;10.48;6.63;;;;;;;4.17;91.32;101513.31;5070747;28;20096;-78
2023/03/16 04:03:55;;;;;;;7.15;5.90;;;;;;;4.18;91.20;101507.19;5072874;28;20028;-78
2023/03/16 04:06:23;;;;;;;7.75;5.80;;;;;;;4.19;91.05;101505.44;5072163;28;20107;-78
2023/03/16 04:08:50;;;;;;;7.60;5.53;;;;;;;4.18;91.42;101501.97;5073111;28;20021;-78
2023/03/16 04:11:15;;;;;;;9.60;6.32;;;;;;;4.20;91.25;101497.56;5071875;28;20021;-78
2023/03/16 04:13:41;;;;;;;9.70;6.18;;;;;;;4.18;90.89;101488.97;5064833;28;20103;-78
2023/03/16 04:16:06;;;;;;;7.35;5.60;;;;;;;4.22;91.43;101494.91;5071091;28;20064;-78
2023/03/16 04:18:37;;;;;;;6.47;5.57;;;;;;;4.19;90.88;101495.88;5072109;28;20016;-78
2023/03/16 04:21:05;;;;;;;7.68;5.80;;;;;;;4.19;91.07;101495.88;5071438;28;20048;-76
2023/03/16 04:23:32;;;;;;;7.47;5.47;;;;;;;4.23;91.29;101497.44;5070804;28;20020;-77
2023/03/16 04:25:58;;;;;;;8.63;5.82;;;;;;;4.22;91.47;101492.28;5052507;28;20037;-78
2023/03/16 04:28:27;;;;;;;7.38;5.53;;;;;;;4.22;90.84;101495.75;5069963;28;20036;-78
2023/03/16 04:30:53;;;;;;;8.50;5.28;;;;;;;4.23;90.83;101502.66;5062462;28;20029;-78
2023/03/16 04:33:20;;;;;;;8.85;5.32;;;;;;;4.22;90.66;101489.69;5069290;28;20388;-79
2023/03/16 04:35:46;;;;;;;7.45;5.20;;;;;;;4.21;90.63;101491.44;5089149;28;20092;-78
2023/03/16 04:38:12;;;;;;;7.30;5.28;;;;;;;4.25;90.50;101494.78;5072471;28;20032;-78
2023/03/16 04:40:38;;;;;;;7.45;5.40;;;;;;;4.26;90.82;101492.13;5070140;28;20025;-78
2023/03/16 04:43:04;;;;;;;9.23;5.68;;;;;;;4.26;90.59;101492.13;5085249;28;20028;-78
2023/03/16 04:45:29;;;;;;;6.95;4.80;;;;;;;4.30;90.52;101482.44;5090843;28;20027;-78
2023/03/16 04:47:55;;;;;;;6.43;4.47;;;;;;;4.32;90.45;101486.69;5055872;28;20017;-78
2023/03/16 04:50:21;;;;;;;4.78;4.22;;;;;;;4.32;90.82;101480.63;5049088;28;20060;-78
2023/03/16 04:52:47;;;;;;;5.85;4.82;;;;;;;4.34;90.52;101484.00;5051363;28;20397;-78
2023/03/16 04:55:12;;;;;;;8.20;4.90;;;;;;;4.31;90.90;101482.38;5048877;28;20059;-78
2023/03/16 04:57:38;;;;;;;7.07;4.72;;;;;;;4.36;91.57;101488.25;5067434;28;20032;-79
2023/03/16 05:00:10;;;;;;;6.25;4.75;;;;;;;4.36;90.86;101490.88;5068958;28;20759;-77
2023/03/16 05:02:36;;;;;;;9.68;5.43;;;;;;;4.35;92.06;101478.75;5068252;28;20074;-77
2023/03/16 05:05:03;;;;;;;7.35;4.60;;;;;;;4.36;92.07;101477.00;5051564;28;20029;-77
2023/03/16 05:07:28;;;;;;;8.07;4.65;;;;;;;4.37;92.04;101474.31;5051555;28;20612;-77
2023/03/16 05:09:53;;;;;;;9.00;4.93;;;;;;;4.38;92.59;101475.16;5050954;28;20111;-79
2023/03/16 05:12:26;;;;;;;7.95;4.57;;;;;;;4.36;92.56;101467.41;5051594;28;20036;-77
2023/03/16 05:14:54;;;;;;;8.55;4.70;;;;;;;4.33;93.17;101472.75;5051662;28;20052;-77
2023/03/16 05:17:21;;;;;;;5.55;4.50;;;;;;;4.33;93.62;101462.31;5050781;28;20055;-77
2023/03/16 05:19:46;;;;;;;8.95;4.88;;;;;;;4.33;93.57;101462.31;5055712;28;20055;-79
2023/03/16 05:22:15;;;;;;;7.13;4.55;;;;;;;4.32;93.74;101463.22;5069039;28;20040;-79
2023/03/16 05:24:40;;;;;;;6.35;4.43;;;;;;;4.33;93.98;101467.53;5054272;28;20025;-77
2023/03/16 05:27:06;;;;;;;10.00;4.50;;;;;;;4.33;93.86;101456.28;5071102;28;20082;-77
2023/03/16 05:29:32;;;;;;;7.47;4.47;;;;;;;4.34;93.33;101464.03;5069745;28;20923;-76
2023/03/16 05:31:58;;;;;;;6.28;4.38;;;;;;;4.37;94.35;101460.44;5069976;28;20060;-77
2023/03/16 05:34:24;;;;;;;6.32;4.50;;;;;;;4.37;94.61;101458.69;5060601;28;20041;-79
2023/03/16 05:36:49;;;;;;;8.10;4.38;;;;;;;4.36;93.90;101451.78;5067023;28;20492;-77
2023/03/16 05:39:15;;;;;;;5.65;4.47;;;;;;;4.38;93.44;101452.56;5049794;28;20031;-79
2023/03/16 05:41:40;;;;;;;6.97;4.40;;;;;;;4.39;93.35;101446.47;5057647;28;20016;-76
2023/03/16 05:44:06;;;;;;;7.30;4.43;;;;;;;4.42;94.09;101447.28;5071687;28;20024;-76
2023/03/16 05:46:35;;;;;;;8.20;4.53;;;;;;;4.40;93.44;101448.19;5068561;28;20604;-77
2023/03/16 05:49:01;;;;;;;6.63;4.07;;;;;;;4.40;93.47;101432.56;5050377;28;20024;-77
2023/03/16 05:51:26;;;;;;;8.77;4.60;;;;;;;4.43;93.55;101431.59;5068535;28;20036;-77
2023/03/16 05:53:55;;;;;;;8.23;4.60;;;;;;;4.46;93.23;101436.69;5072702;28;20040;-76
2023/03/16 05:56:25;;;;;;;7.25;4.40;;;;;;;4.45;93.23;101429.75;5056988;28;20039;-79
2023/03/16 05:58:52;;;;;;;8.57;4.50;;;;;;;4.48;93.27;101428.78;5049470;28;20063;-77
2023/03/16 06:01:19;;;;;;;5.90;4.30;;;;;;;4.48;92.65;101428.78;5059058;28;20070;-76
2023/03/16 06:03:45;;;;;;;9.15;4.80;;;;;;;4.49;92.52;101435.69;5069090;28;20118;-76
2023/03/16 06:06:11;;;;;;;10.82;4.97;;;;;;;4.51;92.36;101436.50;5069244;28;20059;-77
2023/03/16 06:08:36;;;;;;;8.10;4.47;;;;;;;4.52;92.13;101435.59;5073507;28;20481;-77
2023/03/16 06:11:03;;;;;;;6.93;4.43;;;;;;;4.55;91.60;101432.84;5065529;28;20040;-77
2023/03/16 06:13:31;;;;;;;6.50;4.15;;;;;;;4.57;91.28;101433.63;5067584;28;20387;-77
2023/03/16 06:15:56;;;;;;;5.68;4.65;;;;;;;4.57;90.89;101428.44;5067219;28;20024;-77
2023/03/16 06:18:22;;;;;;;7.60;4.95;;;;;;;4.60;90.56;101425.69;5049202;28;20024;-77
2023/03/16 06:20:47;;;;;;;7.57;4.57;;;;;;;4.64;89.96;101435.09;5065854;28;20031;-77
2023/03/16 06:23:13;;;;;;;6.50;4.35;;;;;;;4.66;89.85;101433.25;5050681;28;20475;-77
2023/03/16 06:25:39;;;;;;;6.35;4.35;;;;;;;4.68;89.95;101428.84;5067790;28;20032;-77
2023/03/16 06:28:11;;;;;;;6.15;4.38;;;;;;;4.71;90.56;101441.75;5068208;28;20481;-77
2023/03/16 06:30:38;;;;;;;7.20;4.43;;;;;;;4.74;91.00;101441.63;5049004;28;20025;-76
2023/03/16 06:33:04;;;;;;;8.07;4.40;;;;;;;4.74;90.72;101431.19;5074417;28;20028;-77
2023/03/16 06:35:29;;;;;;;6.85;4.72;;;;;;;4.78;91.32;101426.69;5067922;28;20016;-76
2023/03/16 06:37:54;;;;;;;7.45;4.88;;;;;;;4.79;92.44;101423.19;5066114;28;20025;-76
2023/03/16 06:40:20;;;;;;;7.88;4.47;;;;;;;4.80;92.28;101414.44;5065662;28;20166;-77
2023/03/16 06:42:47;;;;;;;6.65;4.32;;;;;;;4.81;92.00;101417.03;5080570;28;20028;-77
2023/03/16 06:45:14;;;;;;;7.90;4.50;;;;;;;4.83;91.46;101403.94;5073394;28;20476;-77
2023/03/16 06:47:39;;;;;;;7.28;4.50;;;;;;;4.87;91.32;101416.78;5065478;28;20400;-77
2023/03/16 06:50:05;;;;;;;7.85;4.25;;;;;;;4.91;91.61;101418.34;5050613;28;20028;-77
2023/03/16 06:52:30;;;;;;;6.50;4.00;;;;;;;4.94;91.18;101420.81;5050691;28;20042;-77
2023/03/16 06:54:57;;;;;;;7.40;4.32;;;;;;;4.96;91.02;101421.59;5068041;28;20137;-77
2023/03/16 06:57:23;;;;;;;6.57;4.15;;;;;;;4.97;91.54;101423.28;5048329;28;20035;-76
2023/03/16 06:59:48;;;;;;;7.13;4.47;;;;;;;5.00;90.52;101415.34;5049411;28;20393;-77
2023/03/16 07:02:14;;;;;;;7.20;4.38;;;;;;;5.02;90.14;101418.72;5066101;28;20115;-77
2023/03/16 07:04:40;;;;;;;7.95;4.30;;;;;;;5.03;90.29;101417.81;5067667;28;20028;-77
2023/03/16 07:07:06;;;;;;;9.05;4.40;;;;;;;5.06;89.68;101426.44;5068508;28;20036;-77
2023/03/16 07:09:31;;;;;;;9.52;4.45;;;;;;;5.08;89.68;101414.16;5068119;28;20047;-77
2023/03/16 07:11:56;;;;;;;6.70;4.15;;;;;;;5.13;88.84;101417.44;5068603;28;20029;-77
2023/03/16 07:14:23;;;;;;;9.15;4.57;;;;;;;5.16;88.80;101412.06;5068566;28;20024;-78
2023/03/16 07:16:48;;;;;;;5.25;3.90;;;;;;;5.19;88.49;101410.19;5068055;28;20545;-79
2023/03/16 07:19:14;;;;;;;7.88;4.15;;;;;;;5.24;87.47;101404.81;5030132;28;20120;-78
2023/03/16 07:21:40;;;;;;;6.32;4.03;;;;;;;5.27;87.96;101402.06;5044408;28;20017;-80
2023/03/16 07:24:07;;;;;;;4.40;3.72;;;;;;;5.29;87.60;101402.84;5066348;28;20020;-79
2023/03/16 07:26:33;;;;;;;6.03;4.05;;;;;;;5.34;87.21;101404.34;5069344;28;20129;-79
2023/03/16 07:28:58;;;;;;;7.50;3.92;;;;;;;5.38;86.25;101392.00;5072643;28;20495;-77
2023/03/16 07:31:24;;;;;;;8.25;3.60;;;;;;;5.40;87.22;101395.38;5073226;28;20105;-76
2023/03/16 07:33:51;;;;;;;8.10;3.88;;;;;;;5.46;86.05;101396.88;5078391;28;20421;-78
2023/03/16 07:36:16;;;;;;;8.20;3.78;;;;;;;5.49;86.05;101396.75;5068579;28;20052;-80
2023/03/16 07:38:41;;;;;;;6.55;3.75;;;;;;;5.52;84.74;101401.81;5073147;28;20044;-79
2023/03/16 07:41:08;;;;;;;6.45;3.90;;;;;;;5.54;84.99;101406.06;5072227;28;20020;-77
2023/03/16 07:43:33;;;;;;;7.70;3.67;;;;;;;5.56;84.48;101401.63;5092097;28;20053;-77
2023/03/16 07:46:00;;;;;;;7.07;3.60;;;;;;;5.58;84.97;101398.94;5093472;28;20032;-77
2023/03/16 07:48:25;;;;;;;6.80;3.45;;;;;;;5.61;85.04;101401.44;5074174;28;20436;-77
2023/03/16 07:50:50;;;;;;;7.35;3.70;;;;;;;5.64;84.04;101402.16;5047798;28;20025;-78
2023/03/16 07:53:16;;;;;;;7.95;4.00;;;;;;;5.70;83.83;101410.63;5071061;28;20029;-76
2023/03/16 07:55:42;;;;;;;7.32;3.90;;;;;;;5.77;83.55;101404.19;5071741;28;20036;-77
2023/03/16 07:58:09;;;;;;;8.45;3.70;;;;;;;5.81;83.32;101400.53;5068822;28;20072;-77
2023/03/16 08:00:35;;;;;;;6.40;3.75;;;;;;;5.86;82.60;101409.00;5052167;28;20074;-77
2023/03/16 08:03:01;;;;;;;4.93;3.50;;;;;;;5.90;82.53;101410.59;5072741;28;20028;-77
2023/03/16 08:05:31;;;;;;;7.20;3.70;;;;;;;5.94;81.71;101405.16;5059375;28;20031;-78
2023/03/16 08:07:56;;;;;;;6.68;3.80;;;;;;;6.03;82.34;101411.75;5071694;28;20024;-77
2023/03/16 08:10:23;;;;;;;5.45;3.35;;;;;;;6.08;81.19;101401.94;5070929;28;20538;-77
2023/03/16 08:12:48;;;;;;;8.20;3.72;;;;;;;6.16;80.00;101402.41;5079285;28;20084;-78
2023/03/16 08:15:14;;;;;;;6.05;3.75;;;;;;;6.20;80.31;101398.72;5062658;28;20024;-80
2023/03/16 08:17:40;;;;;;;5.38;3.53;;;;;;;6.23;79.15;101402.97;5063272;28;20532;-77
2023/03/16 08:20:11;;;;;;;6.40;3.70;;;;;;;6.31;78.74;101415.66;5073159;28;20426;-77
2023/03/16 08:22:36;;;;;;;7.20;3.30;;;;;;;6.37;78.17;101404.91;5092042;28;20081;-78
2023/03/16 08:25:04;;;;;;;7.00;3.78;;;;;;;6.48;78.52;101406.13;5091817;28;20027;-78
2023/03/16 08:27:31;;;;;;;4.78;3.38;;;;;;;6.54;78.64;101402.34;5091814;28;20053;-77
2023/03/16 08:29:56;;;;;;;7.07;3.53;;;;;;;6.56;77.49;101405.75;5085800;28;20033;-77
2023/03/16 08:32:22;;;;;;;5.45;3.58;;;;;;;6.62;77.22;101404.59;5073892;28;20028;-77
2023/03/16 08:34:47;;;;;;;6.53;3.85;;;;;;;6.65;77.36;101405.28;5067442;28;20020;-77
2023/03/16 08:37:13;;;;;;;7.22;3.83;;;;;;;6.66;76.75;101401.75;5073413;28;20112;-76
2023/03/16 08:39:40;;;;;;;8.02;3.63;;;;;;;6.68;76.56;101399.91;5088463;28;20213;-77
2023/03/16 08:42:06;;;;;;;6.05;3.47;;;;;;;6.71;76.87;101398.91;5067287;28;20028;-76
2023/03/16 08:44:33;;;;;;;9.13;3.58;;;;;;;6.72;76.82;101395.38;5075823;28;20248;-77
2023/03/16 08:46:58;;;;;;;8.63;3.63;;;;;;;6.77;77.21;101398.59;5086841;28;20024;-76
2023/03/16 08:49:24;;;;;;;6.07;3.70;;;;;;;6.79;76.32;101397.59;5070351;28;20081;-75
2023/03/16 08:51:49;;;;;;;7.72;3.38;;;;;;;6.82;75.90;101394.88;5088258;28;20532;-76
2023/03/16 08:54:15;;;;;;;5.25;3.20;;;;;;;6.85;75.56;101394.72;5082868;28;20045;-76
2023/03/16 08:56:42;;;;;;;6.25;3.50;;;;;;;6.87;75.15;101389.41;5086567;28;20062;-76
2023/03/16 08:59:07;;;;;;;6.55;3.72;;;;;;;6.94;76.02;101382.09;5083849;28;20109;-76
2023/03/16 09:01:33;;;;;;;5.50;3.30;;;;;;;7.00;75.55;101387.00;5088769;28;20109;-78
2023/03/16 09:03:59;;;;;;;8.18;3.83;;;;;;;7.13;74.15;101375.84;5084813;28;20030;-78
2023/03/16 09:06:25;;;;;;;5.72;3.63;;;;;;;7.27;74.39;101375.16;5088486;28;20027;-78
2023/03/16 09:08:55;;;;;;;6.82;3.63;;;;;;;7.38;73.73;101372.81;5084079;28;20090;-76
2023/03/16 09:11:23;;;;;;;7.03;3.65;;;;;;;7.45;72.52;101375.94;5064175;28;20050;-78
2023/03/16 09:13:48;;;;;;;5.05;3.40;;;;;;;7.48;71.70;101363.53;5077636;28;20088;-76
2023/03/16 09:16:14;;;;;;;9.95;3.95;;;;;;;7.61;72.14;101370.78;5074753;28;20028;-76
2023/03/16 09:18:41;;;;;;;6.25;3.50;;;;;;;7.76;72.16;101377.81;5081460;28;20461;-76
2023/03/16 09:21:09;;;;;;;7.28;3.25;;;;;;;8.04;70.98;101364.91;5081405;28;20020;-76
2023/03/16 09:23:38;;;;;;;8.27;3.60;;;;;;;8.26;69.54;101364.53;5080982;28;20031;-76
2023/03/16 09:26:06;;;;;;;5.60;3.20;;;;;;;8.43;68.72;101369.72;5079870;28;20035;-75
2023/03/16 09:28:33;;;;;;;6.53;3.00;;;;;;;8.53;68.53;101372.66;5075587;28;20103;-75
2023/03/16 09:31:00;;;;;;;7.78;3.30;;;;;;;8.63;68.88;101362.50;5072722;28;20086;-77
2023/03/16 09:33:27;;;;;;;5.50;3.20;;;;;;;8.67;67.16;101359.59;5078492;28;20077;-76
2023/03/16 09:35:56;;;;;;;5.72;2.83;;;;;;;8.66;66.33;101355.28;5055759;28;20032;-76
2023/03/16 09:38:25;;;;;;;6.35;3.00;;;;;;;8.76;65.59;101368.72;5075397;28;20024;-75
2023/03/16 09:40:59;;;;;;;5.07;3.13;;;;;;;8.81;65.51;101360.59;5071792;28;20058;-76
2023/03/16 09:43:42;;;;;;;7.78;3.10;;;;;;;8.92;65.68;101366.06;5085231;28;20074;-76
2023/03/16 09:46:16;;;;;;;;;;;;;;;9.20;68.26;101360.84;5070119;28;20064;-76
2023/03/16 09:48:42;;;;;;;5.35;2.60;;;;;;;9.62;63.81;101364.44;5078968;28;20146;-78
2023/03/16 09:51:19;;;;;;;6.50;2.95;;;;;;;10.16;62.37;101354.03;5084712;28;20047;-76
2023/03/16 09:53:46;;;;;;;7.78;2.80;;;;;;;10.91;60.71;101348.19;5082193;28;20480;-76
2023/03/16 09:56:36;;;;;;;4.28;2.53;;;;;;;11.39;59.73;101347.56;5064766;28;20032;-75
2023/03/16 09:59:10;;;;;;;5.72;2.55;;;;;;;11.29;57.44;101353.50;5072991;28;20028;-76
2023/03/16 10:01:52;;;;;;;6.82;2.40;;;;;;;11.22;55.91;101338.22;5078327;28;20020;-76
2023/03/16 10:04:34;;;;;;;4.82;2.50;;;;;;;11.55;57.90;101330.56;5071097;28;20032;-76
2023/03/16 10:07:08;;;;;;;6.03;2.60;;;;;;;12.34;55.38;101331.94;5069226;28;20056;-76
2023/03/16 10:09:41;;;;;;;6.13;2.90;;;;;;;12.97;51.00;101325.47;5052659;28;20032;-75
2023/03/16 10:12:08;;;;;;;4.50;2.67;;;;;;;13.22;49.43;101329.75;5082777;28;20491;-75
2023/03/16 10:15:13;;;;;;;5.32;2.63;;;;;;;13.54;49.74;101329.84;5079786;28;20035;-76
2023/03/16 10:17:51;;;;;;;3.67;2.30;;;;;;;13.48;50.60;101325.06;5043407;28;20043;-76
2023/03/16 10:20:19;;;;;;;3.20;2.28;;;;;;;13.65;48.08;101316.66;5061600;28;20083;-75
2023/03/16 10:22:48;;;;;;;4.53;2.40;;;;;;;14.18;48.47;101308.00;5083084;28;20116;-76
2023/03/16 10:25:38;;;;;;;8.15;3.00;;;;;;;15.54;49.02;101321.19;5073792;28;20028;-77
2023/03/16 10:28:03;;;;;;;4.38;2.22;;;;;;;14.61;46.59;101307.97;5086424;28;20020;-76
2023/03/16 10:30:35;;;;;;;4.63;2.13;;;;;;;13.95;47.83;101318.63;5066925;28;20140;-76
2023/03/16 10:33:04;;;;;;;4.78;2.35;;;;;;;13.33;47.98;101315.69;5073503;28;20024;-75
2023/03/16 10:35:48;;;;;;;5.03;2.10;;;;;;;12.86;49.05;101317.53;5075366;28;20029;-76
2023/03/16 10:38:49;;;;;;;5.07;2.20;;;;;;;12.81;51.61;101314.38;5069286;28;20093;-75
2023/03/16 10:41:21;;;;;;;5.35;2.20;;;;;;;12.83;50.55;101317.75;5057556;28;20048;-77
2023/03/16 10:43:50;;;;;;;4.93;2.30;;;;;;;13.09;48.63;101308.66;5067488;28;20064;-76
2023/03/16 10:46:17;;;;;;;5.60;2.30;;;;;;;13.17;48.91;101300.16;5065779;28;20024;-75
2023/03/16 10:48:52;;;;;;;6.07;2.40;;;;;;;13.42;49.13;101299.09;5076818;28;20057;-76
2023/03/16 10:51:22;;;;;;;6.30;2.30;;;;;;;13.31;49.01;101294.66;5087055;28;20036;-76
2023/03/16 10:53:49;;;;;;;4.80;2.40;;;;;;;13.22;48.60;101291.91;5066518;28;20028;-78
2023/03/16 10:56:21;;;;;;;2.95;2.00;;;;;;;13.23;49.79;101296.22;5066476;28;20028;-76
2023/03/16 10:58:47;;;;;;;;;;;;;;;13.46;51.60;101285.53;5069539;28;20190;-76
2023/03/16 11:01:20;;;;;;;5.22;2.17;;;;;;;13.01;50.39;101292.56;5066218;28;19912;-77
2023/03/16 11:04:01;;;;;;;5.38;2.17;;;;;;;12.91;49.50;101288.13;5064552;28;20056;-76
2023/03/16 11:06:31;;;;;;;3.65;2.17;;;;;;;12.60;49.65;101276.41;5049903;28;20482;-75
2023/03/16 11:09:41;;;;;;;4.13;1.63;;;;;;;12.71;50.64;101284.34;5049032;28;20190;-76
2023/03/16 11:12:23;;;;;;;3.88;1.70;;;;;;;12.60;49.98;101274.59;5049425;28;20030;-76
2023/03/16 11:14:48;;;;;;;5.32;1.60;;;;;;;12.70;49.28;101272.09;5049145;28;20029;-76
2023/03/16 11:17:20;;;;;;;4.93;1.80;;;;;;;12.74;49.21;101258.53;5049228;28;20036;-78
2023/03/16 11:20:04;;;;;;;5.07;2.15;;;;;;;12.69;48.13;101258.03;5049700;28;20039;-76
2023/03/16 11:22:31;;;;;;;4.60;2.13;;;;;;;12.81;48.88;101259.78;5046126;28;20017;-75
2023/03/16 11:25:11;;;;;;;5.13;1.98;;;;;;;12.80;49.09;101255.41;5031484;28;20025;-76
2023/03/16 11:27:42;;;;;;;4.13;1.77;;;;;;;12.76;48.39;101250.50;5041428;28;20019;-77
2023/03/16 11:30:18;;;;;;;4.97;1.75;;;;;;;12.74;49.28;101260.34;5028380;28;20347;-76
2023/03/16 11:32:54;;;;;;;4.22;1.75;;;;;;;12.80;48.44;101251.94;5034194;28;20024;-76
2023/03/16 11:35:31;;;;;;;3.33;1.70;;;;;;;12.71;48.33;101242.94;5048237;28;20052;-77
2023/03/16 11:38:26;;;;;;;6.30;1.95;;;;;;;12.79;50.16;101245.81;5048323;28;20029;-78